Time;durP1;ratioP1;P1;durP2;ratioP2;P2;SDS_P1;SDS_P2;PMS_P1;PMS_P2;Temp;Humidity;BMP_temperature;BMP_pressure;BME280_temperature;BME280_humidity;BME280_pressure;Samples;Min_cycle;Max_cycle;Signal;HPM_P1;HPM_P2
2022/08/10 00:01:33;;;;;;;3.80;1.80;;;;;;;17.50;64.62;102021.36;107029;1282;61292;-82
2022/08/10 00:04:00;;;;;;;4.90;1.90;;;;;;;17.47;64.83;102020.13;107371;1282;76527;-82
2022/08/10 00:06:27;;;;;;;3.50;1.70;;;;;;;17.44;65.09;102026.82;107134;1282;72471;-82
2022/08/10 00:08:54;;;;;;;4.90;1.60;;;;;;;17.39;65.21;102025.96;107152;1284;73226;-82
2022/08/10 00:11:21;;;;;;;4.20;1.80;;;;;;;17.32;65.39;102025.77;106856;1282;62105;-82
2022/08/10 00:13:49;;;;;;;4.70;1.70;;;;;;;17.27;65.71;102030.65;107096;1282;61579;-82
2022/08/10 00:16:16;;;;;;;5.70;2.00;;;;;;;17.23;65.89;102028.45;106922;1282;76637;-82
2022/08/10 00:18:44;;;;;;;8.70;1.80;;;;;;;17.19;66.05;102031.36;107164;1282;72141;-82
2022/08/10 00:21:11;;;;;;;4.70;1.70;;;;;;;17.13;66.31;102032.33;106791;1282;72968;-82
2022/08/10 00:23:38;;;;;;;4.30;1.70;;;;;;;17.09;66.52;102029.98;107184;1282;63279;-82
2022/08/10 00:26:09;;;;;;;5.00;1.80;;;;;;;17.05;66.81;102027.63;107296;1282;60374;-82
2022/08/10 00:28:37;;;;;;;5.80;2.00;;;;;;;17.01;66.95;102029.91;107186;1282;75974;-82
2022/08/10 00:31:08;;;;;;;4.10;1.60;;;;;;;16.97;67.12;102028.75;106958;1282;72679;-82
2022/08/10 00:33:35;;;;;;;5.50;1.80;;;;;;;16.95;67.18;102031.56;107318;1283;74041;-82
2022/08/10 00:36:02;;;;;;;3.80;1.90;;;;;;;16.92;67.26;102030.59;107177;1282;62261;-82
2022/08/10 00:38:29;;;;;;;5.40;1.90;;;;;;;16.89;67.36;102029.75;107117;1284;60834;-82
2022/08/10 00:40:56;;;;;;;4.10;1.70;;;;;;;16.85;67.52;102027.38;107309;1282;74178;-82
2022/08/10 00:43:24;;;;;;;6.50;2.00;;;;;;;16.80;67.76;102031.64;107236;1282;70913;-83
2022/08/10 00:45:51;;;;;;;5.10;1.90;;;;;;;16.78;67.98;102028.23;107450;1282;73569;-82
2022/08/10 00:48:28;;;;;;;5.20;1.90;;;;;;;16.75;68.11;102026.23;106856;1284;62385;-83
2022/08/10 00:50:57;;;;;;;4.20;1.90;;;;;;;16.73;68.17;102023.22;107334;1284;60808;-82
2022/08/10 00:53:25;;;;;;;3.60;2.00;;;;;;;16.70;68.16;102021.40;107163;1282;74473;-82
2022/08/10 00:55:52;;;;;;;5.20;1.70;;;;;;;16.68;68.21;102014.70;107309;1282;71126;-82
2022/08/10 00:58:39;;;;;;;6.30;1.80;;;;;;;16.65;68.63;102011.15;107473;1282;74618;-82
2022/08/10 01:01:10;;;;;;;4.90;1.80;;;;;;;16.62;68.75;102011.44;107114;1282;62318;-82
2022/08/10 01:03:57;;;;;;;4.50;1.90;;;;;;;16.57;68.84;102005.59;107143;1282;63155;-82
2022/08/10 01:07:03;;;;;;;3.50;1.90;;;;;;;16.53;68.96;102002.35;106715;1282;77217;-81
2022/08/10 01:09:38;;;;;;;3.90;2.00;;;;;;;16.48;69.16;102006.89;107302;1282;70485;-82
2022/08/10 01:12:24;;;;;;;3.30;1.80;;;;;;;16.42;69.35;102009.22;106934;1282;72815;-82
2022/08/10 01:15:10;;;;;;;5.10;2.00;;;;;;;16.35;69.65;102004.13;107031;1282;62755;-82
2022/08/10 01:18:15;;;;;;;3.80;2.00;;;;;;;16.29;69.87;102004.03;106993;1282;59394;-82
2022/08/10 01:21:03;;;;;;;4.60;2.10;;;;;;;16.23;70.15;102003.96;106940;1282;74873;-82
2022/08/10 01:23:48;;;;;;;4.90;2.00;;;;;;;16.18;70.23;102003.67;106955;1282;71828;-82
2022/08/10 01:26:32;;;;;;;4.30;2.00;;;;;;;16.13;70.47;101999.39;106906;1282;73252;-82
2022/08/10 01:29:47;;;;;;;5.80;2.40;;;;;;;16.08;70.74;102000.17;107312;1282;62654;-81
2022/08/10 01:32:23;;;;;;;3.50;1.90;;;;;;;16.02;70.91;102002.95;106698;1282;61219;-82
2022/08/10 01:34:55;;;;;;;3.90;2.00;;;;;;;15.99;71.25;102001.73;106554;1284;76610;-82
2022/08/10 01:37:25;;;;;;;5.70;2.30;;;;;;;15.95;71.44;102000.23;106867;1282;71385;-82
2022/08/10 01:39:56;;;;;;;5.30;2.10;;;;;;;15.92;71.67;101992.19;107151;1282;72993;-82
2022/08/10 01:42:24;;;;;;;3.80;2.10;;;;;;;15.89;72.06;101991.27;107137;1282;63567;-82
2022/08/10 01:44:55;;;;;;;5.10;2.20;;;;;;;15.86;72.22;101993.03;106915;1282;61286;-82
2022/08/10 01:50:51;;;;;;;6.20;2.40;;;;;;;15.81;72.71;101997.21;107299;1282;72231;-81
2022/08/10 01:53:50;;;;;;;3.80;2.30;;;;;;;15.79;72.92;101989.61;106083;1288;71645;-81
2022/08/10 01:56:20;;;;;;;5.00;2.50;;;;;;;15.76;73.13;101990.77;107017;1282;62097;-82
2022/08/10 01:58:55;;;;;;;5.90;2.20;;;;;;;15.75;73.28;101992.02;107203;1282;61432;-82
2022/08/10 02:01:24;;;;;;;5.10;2.40;;;;;;;15.74;73.57;101994.69;106951;1284;76027;-82
2022/08/10 02:03:56;;;;;;;5.50;2.40;;;;;;;15.71;73.61;101991.41;107157;1282;71610;-82
2022/08/10 02:06:35;;;;;;;4.60;2.30;;;;;;;15.69;73.77;101991.25;107121;1282;74012;-82
2022/08/10 02:09:05;;;;;;;5.40;2.80;;;;;;;15.67;73.85;101991.95;107026;1281;62605;-83
2022/08/10 02:11:37;;;;;;;6.20;2.40;;;;;;;15.66;73.85;101991.05;106989;1282;61614;-82
2022/08/10 02:14:31;;;;;;;6.00;2.70;;;;;;;15.64;73.94;101991.97;106940;1281;76712;-82
2022/08/10 02:17:04;;;;;;;5.10;2.60;;;;;;;15.61;74.26;101994.70;107199;1281;71368;-83
2022/08/10 02:19:35;;;;;;;6.40;2.50;;;;;;;15.58;74.39;101992.15;107008;1282;73931;-82
2022/08/10 02:22:03;;;;;;;5.50;2.50;;;;;;;15.55;74.58;101996.41;106998;1282;61981;-81
2022/08/10 02:24:51;;;;;;;4.40;2.30;;;;;;;15.51;74.66;101996.13;106925;1284;62258;-82
2022/08/10 02:27:21;;;;;;;3.60;2.40;;;;;;;15.47;74.56;101999.95;107147;1282;74905;-82
2022/08/10 02:29:52;;;;;;;3.80;2.20;;;;;;;15.43;74.82;101997.81;107197;1283;71543;-81
2022/08/10 02:32:24;;;;;;;4.40;2.50;;;;;;;15.37;74.98;101994.58;106849;1284;73298;-82
2022/08/10 02:35:09;;;;;;;4.10;2.30;;;;;;;15.32;75.14;101997.48;107170;1282;62021;-82
2022/08/10 02:37:51;;;;;;;6.30;2.40;;;;;;;15.27;75.25;101994.78;106953;1283;62037;-82
2022/08/10 02:40:19;;;;;;;3.70;2.40;;;;;;;15.24;75.53;101996.44;106709;1282;74723;-82
2022/08/10 02:43:30;;;;;;;5.00;2.30;;;;;;;15.19;75.66;101999.59;107077;1283;72741;-82
2022/08/10 02:46:33;;;;;;;5.00;2.50;;;;;;;15.16;75.84;102002.88;107128;1282;72839;-82
2022/08/10 02:49:02;;;;;;;3.40;2.50;;;;;;;15.12;75.94;102004.70;107224;1282;62375;-82
2022/08/10 02:51:40;;;;;;;4.40;2.30;;;;;;;15.08;75.77;102006.88;106802;1282;59995;-82
2022/08/10 02:54:31;;;;;;;4.20;2.20;;;;;;;15.04;76.12;102009.53;107033;1283;76452;-84
2022/08/10 02:57:07;;;;;;;5.00;2.50;;;;;;;15.00;76.19;102006.78;106894;1283;71111;-82
2022/08/10 02:59:41;;;;;;;4.10;2.40;;;;;;;14.97;76.56;102009.73;106900;1282;73518;-82
2022/08/10 03:02:13;;;;;;;3.90;2.40;;;;;;;14.94;76.66;102009.50;106691;1284;63235;-83
2022/08/10 03:04:49;;;;;;;4.10;2.60;;;;;;;14.92;76.71;102009.48;106962;1282;60436;-82
2022/08/10 03:07:27;;;;;;;3.80;2.40;;;;;;;14.88;76.94;102009.80;106771;1282;74971;-82
2022/08/10 03:10:17;;;;;;;5.50;2.50;;;;;;;14.85;77.00;102009.49;106914;1282;72741;-82
2022/08/10 03:12:48;;;;;;;5.40;2.80;;;;;;;14.83;77.19;102008.69;106817;1284;73536;-82
2022/08/10 03:15:17;;;;;;;4.60;2.60;;;;;;;14.80;77.49;102009.64;106938;1284;60132;-82
2022/08/10 03:17:46;;;;;;;5.60;2.90;;;;;;;14.78;77.48;102003.33;106789;1282;61822;-82
2022/08/10 03:20:27;;;;;;;5.10;2.80;;;;;;;14.76;77.47;102000.30;106803;1281;76061;-82
2022/08/10 03:23:09;;;;;;;4.30;2.90;;;;;;;14.74;77.68;101999.46;106807;1284;72749;-81
2022/08/10 03:25:37;;;;;;;6.70;3.30;;;;;;;14.72;77.82;101996.41;107041;1282;73131;-82
2022/08/10 03:28:05;;;;;;;4.30;2.80;;;;;;;14.69;78.34;101997.55;106939;1281;61959;-82
2022/08/10 03:30:32;;;;;;;5.70;3.00;;;;;;;14.66;78.73;101995.14;106800;1282;59998;-82
2022/08/10 03:33:03;;;;;;;5.00;3.10;;;;;;;14.64;78.60;101989.73;107094;1281;76240;-82
2022/08/10 03:35:30;;;;;;;5.10;3.10;;;;;;;14.63;78.65;101989.14;106924;1282;71630;-81
2022/08/10 03:37:59;;;;;;;5.90;3.50;;;;;;;14.61;78.82;101989.65;107014;1281;71563;-81
2022/08/10 03:40:29;;;;;;;7.20;3.30;;;;;;;14.61;78.96;101986.17;106851;1282;62366;-81
2022/08/10 03:43:16;;;;;;;6.90;3.10;;;;;;;14.60;79.04;101987.00;107185;1282;60603;-81
2022/08/10 03:45:46;;;;;;;6.00;2.70;;;;;;;14.58;79.08;101986.98;107230;1282;74960;-82
2022/08/10 03:48:23;;;;;;;6.40;3.50;;;;;;;14.57;79.26;101986.35;106952;1281;72148;-81
2022/08/10 03:51:00;;;;;;;5.20;3.30;;;;;;;14.57;79.33;101986.05;106907;1281;73653;-82
2022/08/10 03:53:27;;;;;;;5.30;3.20;;;;;;;14.56;79.45;101984.17;107139;1282;63337;-82
2022/08/10 03:56:15;;;;;;;6.50;3.40;;;;;;;14.56;79.57;101985.63;107361;1282;63141;-81
2022/08/10 03:58:57;;;;;;;4.40;3.30;;;;;;;14.56;79.56;101982.64;107236;1282;74906;-81
2022/08/10 04:01:25;;;;;;;5.90;3.80;;;;;;;14.53;79.61;101983.46;106943;1283;71503;-81
2022/08/10 04:04:12;;;;;;;4.80;3.40;;;;;;;14.51;79.79;101983.15;107370;1282;74328;-81
2022/08/10 04:06:49;;;;;;;6.00;3.50;;;;;;;14.49;79.83;101979.20;107047;1281;62039;-81
2022/08/10 04:09:17;;;;;;;9.30;4.00;;;;;;;14.48;79.96;101984.66;106881;1282;60629;-81
2022/08/10 04:11:45;;;;;;;5.70;3.50;;;;;;;14.48;80.00;101980.55;107016;1281;74663;-82
2022/08/10 04:14:12;;;;;;;4.60;3.40;;;;;;;14.49;80.22;101984.21;107095;1281;70692;-81
2022/08/10 04:16:59;;;;;;;5.30;3.60;;;;;;;14.51;80.07;101985.61;106950;1282;74602;-81
2022/08/10 04:19:34;;;;;;;9.00;3.20;;;;;;;14.53;80.36;101989.36;106456;1282;62023;-82
2022/08/10 04:22:09;;;;;;;6.70;3.50;;;;;;;14.54;80.21;101995.61;106922;1284;61697;-81
2022/08/10 04:24:38;;;;;;;6.90;3.40;;;;;;;14.56;80.27;101993.50;107191;1282;76208;-81
2022/08/10 04:27:05;;;;;;;5.60;3.40;;;;;;;14.58;80.30;101993.92;106680;1282;71675;-82
2022/08/10 04:29:33;;;;;;;6.90;3.10;;;;;;;14.60;80.11;101996.91;106779;1283;73135;-81
2022/08/10 04:32:02;;;;;;;5.10;3.20;;;;;;;14.63;80.19;101994.08;106962;1282;61955;-81
2022/08/10 04:34:32;;;;;;;4.70;3.00;;;;;;;14.67;79.95;101996.48;107229;1283;61569;-82
2022/08/10 04:37:03;;;;;;;6.60;3.30;;;;;;;14.71;79.99;101996.14;106840;1282;75138;-81
2022/08/10 04:39:35;;;;;;;7.20;3.70;;;;;;;14.73;79.74;102003.84;106923;1282;73426;-81
2022/08/10 04:42:02;;;;;;;6.20;3.10;;;;;;;14.78;79.79;102005.23;107254;1282;74282;-82
2022/08/10 04:44:29;;;;;;;6.80;3.20;;;;;;;14.83;79.86;102007.39;106862;1284;62096;-81
2022/08/10 04:46:57;;;;;;;6.00;3.20;;;;;;;14.89;79.86;102010.11;106980;1282;61175;-81
2022/08/10 04:49:25;;;;;;;6.60;3.00;;;;;;;14.96;79.67;102009.36;106906;1283;76023;-81
2022/08/10 04:52:13;;;;;;;6.20;3.10;;;;;;;15.04;79.72;102011.40;106790;1282;73873;-81
2022/08/10 04:54:40;;;;;;;6.20;3.00;;;;;;;15.12;79.39;102017.23;106713;1284;72887;-82
2022/08/10 04:57:08;;;;;;;6.20;3.70;;;;;;;15.18;79.41;102022.59;106798;1284;62083;-81
2022/08/10 04:59:35;;;;;;;5.70;3.50;;;;;;;15.24;79.33;102027.73;107188;1283;61551;-82
2022/08/10 05:02:02;;;;;;;6.90;3.40;;;;;;;15.31;79.18;102028.91;106732;1282;76437;-81
2022/08/10 05:04:49;;;;;;;6.50;3.20;;;;;;;15.40;78.89;102028.81;106643;1282;74920;-82
2022/08/10 05:07:16;;;;;;;5.80;3.10;;;;;;;15.49;78.79;102031.91;106885;1282;73983;-82
2022/08/10 05:09:46;;;;;;;6.90;3.20;;;;;;;15.56;78.46;102032.52;107247;1281;63271;-81
2022/08/10 05:12:33;;;;;;;6.10;3.50;;;;;;;15.64;78.46;102033.36;106916;1282;60679;-82
2022/08/10 05:15:11;;;;;;;6.00;3.20;;;;;;;15.73;78.32;102041.06;106837;1284;74819;-81
2022/08/10 05:17:39;;;;;;;7.20;3.40;;;;;;;15.86;77.98;102042.14;107134;1282;71315;-82
2022/08/10 05:20:08;;;;;;;4.70;3.30;;;;;;;15.96;77.61;102041.70;107099;1282;74766;-82
2022/08/10 05:22:40;;;;;;;5.80;3.00;;;;;;;16.06;77.21;102043.40;107037;1282;62744;-82
2022/08/10 05:25:10;;;;;;;5.40;3.30;;;;;;;16.15;76.95;102042.64;106801;1282;61919;-82
2022/08/10 05:27:37;;;;;;;4.10;3.40;;;;;;;16.26;76.52;102044.47;106852;1282;75009;-82
2022/08/10 05:30:06;;;;;;;5.70;3.20;;;;;;;16.34;76.24;102041.23;106981;1284;71422;-82
2022/08/10 05:32:34;;;;;;;4.90;3.30;;;;;;;16.45;76.24;102042.38;106818;1282;74131;-81
2022/08/10 05:35:21;;;;;;;6.10;3.60;;;;;;;16.59;75.74;102040.77;107091;1284;64522;-82
2022/08/10 05:37:50;;;;;;;5.80;3.50;;;;;;;16.68;75.27;102043.73;107227;1282;60999;-82
2022/08/10 05:40:42;;;;;;;8.90;3.40;;;;;;;16.81;74.73;102039.90;106851;1282;77138;-82
2022/08/10 05:43:14;;;;;;;7.60;3.20;;;;;;;16.90;74.38;102038.85;107101;1282;70825;-82
2022/08/10 05:45:43;;;;;;;6.90;3.20;;;;;;;17.01;74.09;102033.06;106506;1283;74183;-82
2022/08/10 05:48:30;;;;;;;6.70;3.10;;;;;;;17.15;73.63;102033.91;106832;1282;63997;-82
2022/08/10 05:51:17;;;;;;;7.50;3.50;;;;;;;17.24;73.05;102035.48;106923;1282;61207;-82
2022/08/10 05:53:47;;;;;;;7.20;3.20;;;;;;;17.30;72.83;102037.25;107036;1282;75465;-82
2022/08/10 05:56:36;;;;;;;4.40;2.90;;;;;;;17.39;72.65;102037.51;107221;1282;72146;-81
2022/08/10 05:59:30;;;;;;;7.10;3.20;;;;;;;17.44;72.18;102039.73;106955;1284;75126;-82
2022/08/10 06:02:41;;;;;;;7.50;3.10;;;;;;;17.46;71.90;102042.98;106937;1282;63575;-82
2022/08/10 06:05:09;;;;;;;4.90;2.70;;;;;;;17.56;71.89;102041.86;106817;1282;61037;-82
2022/08/10 06:07:45;;;;;;;5.70;2.70;;;;;;;17.68;71.49;102039.81;107258;1282;76517;-82
2022/08/10 06:10:14;;;;;;;4.90;2.90;;;;;;;17.79;70.66;102044.39;107364;1281;72510;-82
2022/08/10 06:16:04;;;;;;;7.60;2.90;;;;;;;18.05;69.55;102050.68;107304;1280;61638;-82
2022/08/10 06:18:36;;;;;;;4.80;2.60;;;;;;;18.17;68.89;102052.97;107104;1281;61573;-82
2022/08/10 06:21:03;;;;;;;7.80;2.60;;;;;;;18.25;68.37;102052.61;107308;1282;76516;-82
2022/08/10 06:23:34;;;;;;;4.00;2.30;;;;;;;18.36;68.01;102051.63;107078;1282;73293;-82
2022/08/10 06:26:02;;;;;;;4.70;2.60;;;;;;;18.44;67.37;102054.67;107104;1280;73524;-82
2022/08/10 06:28:46;;;;;;;6.40;2.60;;;;;;;18.60;67.30;102050.91;107161;1281;62286;-82
2022/08/10 06:31:30;;;;;;;5.60;2.40;;;;;;;18.78;66.82;102049.00;107087;1282;60656;-82
2022/08/10 06:34:19;;;;;;;5.50;2.40;;;;;;;18.98;66.13;102053.48;106985;1282;74920;-82
2022/08/10 06:36:47;;;;;;;3.40;2.30;;;;;;;19.13;64.94;102052.91;106867;1282;71688;-82
2022/08/10 06:39:15;;;;;;;5.60;2.30;;;;;;;19.23;64.46;102053.70;107256;1281;73367;-82
2022/08/10 06:42:04;;;;;;;5.80;2.50;;;;;;;19.38;64.40;102058.62;107264;1282;62133;-82
2022/08/10 06:45:15;;;;;;;4.50;2.20;;;;;;;19.57;63.85;102057.61;107253;1281;61498;-82
2022/08/10 06:47:58;;;;;;;4.60;2.40;;;;;;;19.75;63.21;102057.84;107157;1282;75051;-82
2022/08/10 06:50:44;;;;;;;5.20;2.20;;;;;;;19.88;62.56;102053.92;107023;1282;71541;-82
2022/08/10 06:53:36;;;;;;;4.60;2.30;;;;;;;20.06;61.91;102057.08;107286;1281;72089;-82
2022/08/10 06:56:23;;;;;;;4.00;1.90;;;;;;;20.25;61.32;102057.42;107002;1282;63243;-82
2022/08/10 06:59:35;;;;;;;4.00;2.00;;;;;;;20.34;60.31;102058.89;106809;1281;61282;-82
2022/08/10 07:02:06;;;;;;;4.90;2.00;;;;;;;20.38;59.18;102060.39;106813;1282;75149;-82
2022/08/10 07:04:43;;;;;;;3.50;1.80;;;;;;;20.42;59.11;102056.77;107029;1281;72377;-82
2022/08/10 07:07:17;;;;;;;3.60;1.80;;;;;;;20.51;59.17;102057.35;107238;1281;72986;-82
2022/08/10 07:09:46;;;;;;;5.00;2.10;;;;;;;20.68;59.22;102055.79;107043;1282;61661;-82
2022/08/10 07:12:14;;;;;;;4.60;2.00;;;;;;;20.83;58.65;102054.30;107215;1281;61769;-83
2022/08/10 07:14:44;;;;;;;3.40;1.80;;;;;;;20.98;58.63;102052.48;107199;1281;74473;-82
2022/08/10 07:17:13;;;;;;;4.60;2.00;;;;;;;21.11;57.85;102050.73;106985;1282;71197;-82
2022/08/10 07:19:45;;;;;;;5.60;2.10;;;;;;;21.22;57.52;102049.38;107100;1282;74064;-82
2022/08/10 07:22:18;;;;;;;4.90;2.00;;;;;;;21.33;57.20;102052.08;106837;1282;60816;-82
2022/08/10 07:25:07;;;;;;;6.10;1.90;;;;;;;21.47;57.22;102050.89;107069;1282;61807;-83
2022/08/10 07:27:34;;;;;;;5.00;1.70;;;;;;;21.60;56.50;102047.13;106816;1282;75033;-82
2022/08/10 07:30:21;;;;;;;3.60;1.80;;;;;;;21.69;55.65;102050.70;107324;1281;73504;-82
2022/08/10 07:32:51;;;;;;;4.40;2.00;;;;;;;21.75;55.43;102051.25;106969;1283;74286;-82
2022/08/10 07:35:20;;;;;;;4.80;1.80;;;;;;;21.88;55.34;102047.27;107201;1282;61432;-83
2022/08/10 07:37:50;;;;;;;4.20;1.90;;;;;;;21.95;54.59;102047.42;107112;1281;61182;-83
2022/08/10 07:40:19;;;;;;;4.90;2.00;;;;;;;22.02;55.06;102049.47;106906;1282;76050;-83
2022/08/10 07:42:55;;;;;;;4.60;1.80;;;;;;;22.19;54.94;102047.77;106913;1284;72026;-83
2022/08/10 07:45:27;;;;;;;6.00;1.80;;;;;;;22.36;54.56;102043.70;107176;1281;73897;-83
2022/08/10 07:47:58;;;;;;;3.40;1.90;;;;;;;22.54;54.32;102042.14;107096;1282;60503;-83
2022/08/10 07:50:35;;;;;;;4.50;1.90;;;;;;;22.72;53.82;102044.23;106898;1282;61601;-83
2022/08/10 07:53:02;;;;;;;2.80;1.70;;;;;;;22.81;53.03;102045.49;106911;1284;75118;-83
2022/08/10 07:55:31;;;;;;;3.60;1.70;;;;;;;22.90;52.88;102043.58;106634;1280;71302;-83
2022/08/10 07:58:20;;;;;;;5.00;2.10;;;;;;;22.97;52.82;102043.21;107047;1282;75439;-85
2022/08/10 08:00:51;;;;;;;5.70;1.90;;;;;;;23.09;52.53;102046.02;106888;1281;61409;-84
2022/08/10 08:03:23;;;;;;;4.10;1.90;;;;;;;23.17;52.43;102043.02;107200;1282;60780;-84
2022/08/10 08:05:51;;;;;;;4.00;1.70;;;;;;;23.36;52.48;102035.31;107098;1282;76285;-84
2022/08/10 08:08:29;;;;;;;6.30;2.10;;;;;;;23.58;51.80;102035.06;107195;1282;71078;-84
2022/08/10 08:10:58;;;;;;;4.10;2.10;;;;;;;23.72;51.09;102034.42;107078;1282;74098;-84
2022/08/10 08:13:26;;;;;;;3.10;1.90;;;;;;;23.86;50.95;102028.20;107318;1281;61398;-84
2022/08/10 08:15:54;;;;;;;7.60;2.20;;;;;;;24.03;50.47;102032.69;106850;1282;60550;-84
2022/08/10 08:18:42;;;;;;;7.40;1.90;;;;;;;24.19;50.07;102037.11;106943;1282;77166;-83
2022/08/10 08:21:29;;;;;;;5.70;2.10;;;;;;;24.33;48.89;102036.95;106850;1282;74504;-84
2022/08/10 08:24:18;;;;;;;4.30;2.00;;;;;;;24.43;47.27;102035.72;107247;1282;76015;-83
2022/08/10 08:27:00;;;;;;;4.10;2.00;;;;;;;24.41;46.36;102035.20;107037;1281;60652;-84
2022/08/10 08:29:30;;;;;;;4.30;1.80;;;;;;;24.43;46.16;102031.55;107461;1282;61611;-84
2022/08/10 08:31:57;;;;;;;4.40;1.90;;;;;;;24.39;46.21;102035.41;107228;1281;76088;-85
2022/08/10 08:34:30;;;;;;;4.80;1.90;;;;;;;24.35;46.49;102031.52;106952;1282;72642;-84
2022/08/10 08:36:59;;;;;;;3.70;1.80;;;;;;;24.48;46.82;102033.36;106929;1282;71787;-83
2022/08/10 08:39:27;;;;;;;3.10;1.50;;;;;;;24.57;45.64;102033.95;107103;1282;59790;-84
2022/08/10 08:42:14;;;;;;;3.60;1.90;;;;;;;24.58;45.50;102031.92;107030;1281;61942;-83
2022/08/10 08:45:04;;;;;;;4.00;2.00;;;;;;;24.73;46.21;102025.35;106955;1282;75375;-84
2022/08/10 08:48:21;;;;;;;6.10;2.40;;;;;;;24.92;45.64;102022.36;106720;1282;70221;-83
2022/08/10 08:51:15;;;;;;;4.90;1.80;;;;;;;25.16;44.94;102019.44;107299;1281;74223;-84
2022/08/10 08:54:16;;;;;;;4.80;1.60;;;;;;;25.24;43.30;102015.98;107012;1284;59296;-82
2022/08/10 08:56:53;;;;;;;7.30;1.80;;;;;;;25.29;43.49;102012.76;107156;1281;61340;-83
2022/08/10 08:59:29;;;;;;;6.60;1.60;;;;;;;25.41;43.69;102010.02;107106;1282;74906;-84
2022/08/10 09:02:05;;;;;;;4.50;1.80;;;;;;;25.56;42.90;102009.44;107002;1282;72445;-84
2022/08/10 09:04:51;;;;;;;2.90;1.50;;;;;;;25.69;42.45;102011.95;106983;1282;74717;-83
2022/08/10 09:07:21;;;;;;;3.40;1.80;;;;;;;25.85;42.27;102011.24;106775;1282;59521;-84
2022/08/10 09:10:44;;;;;;;3.10;1.80;;;;;;;26.04;42.28;102008.51;107167;1282;62214;-85
2022/08/10 09:13:28;;;;;;;4.40;1.60;;;;;;;26.25;40.76;102009.33;107104;1282;74857;-84
2022/08/10 09:16:23;;;;;;;2.70;1.60;;;;;;;26.41;40.61;102010.05;107418;1282;71618;-84
2022/08/10 09:19:17;;;;;;;3.90;1.60;;;;;;;26.59;39.69;102006.74;107370;1282;73345;-85
2022/08/10 09:22:18;;;;;;;3.30;1.40;;;;;;;26.70;39.44;102003.90;106788;1282;61270;-84
2022/08/10 09:24:56;;;;;;;6.30;1.70;;;;;;;26.74;39.18;101997.87;106972;1282;61889;-84
2022/08/10 09:27:34;;;;;;;4.80;1.80;;;;;;;26.83;38.94;101995.16;107189;1282;75269;-85
2022/08/10 09:30:06;;;;;;;4.30;1.60;;;;;;;27.00;39.05;101995.79;107087;1282;72544;-84
2022/08/10 09:32:56;;;;;;;5.40;1.50;;;;;;;27.12;39.36;101993.39;106915;1282;72823;-85
2022/08/10 09:35:56;;;;;;;3.60;1.30;;;;;;;27.28;38.98;101994.19;107195;1282;63041;-85
2022/08/10 09:39:17;;;;;;;3.20;1.40;;;;;;;27.37;38.47;101993.38;107235;1282;63857;-84
2022/08/10 09:42:24;;;;;;;5.40;1.40;;;;;;;27.46;38.25;101988.55;107346;1282;77155;-85
2022/08/10 09:45:13;;;;;;;5.70;1.30;;;;;;;27.52;38.58;101987.68;106955;1282;73019;-85
2022/08/10 09:47:58;;;;;;;3.70;1.30;;;;;;;27.63;37.86;101981.68;107140;1283;72911;-84
2022/08/10 09:50:46;;;;;;;3.20;1.40;;;;;;;27.73;37.03;101982.20;106982;1281;62665;-85
2022/08/10 09:53:48;;;;;;;4.70;1.30;;;;;;;27.79;36.61;101982.87;107173;1282;60191;-85
2022/08/10 09:56:46;;;;;;;2.80;1.40;;;;;;;27.82;36.01;101981.27;107224;1282;74749;-84
2022/08/10 09:59:16;;;;;;;3.40;1.40;;;;;;;27.92;37.29;101978.40;107155;1282;72640;-84
2022/08/10 10:02:21;;;;;;;3.60;1.30;;;;;;;28.04;36.27;101974.41;106917;1282;74366;-86
2022/08/10 10:05:29;;;;;;;4.40;1.30;;;;;;;28.10;36.36;101979.42;106934;1283;60506;-85
2022/08/10 10:08:23;;;;;;;3.10;1.30;;;;;;;28.12;35.42;101977.19;107140;1282;59499;-85
2022/08/10 10:11:02;;;;;;;3.00;1.30;;;;;;;27.86;35.47;101973.39;107114;1282;75533;-85
2022/08/10 10:13:39;;;;;;;4.40;1.30;;;;;;;27.92;35.53;101974.48;106778;1282;71566;-85
2022/08/10 10:16:51;;;;;;;5.40;1.30;;;;;;;27.93;35.13;101969.96;107091;1282;75279;-85
2022/08/10 10:19:30;;;;;;;2.00;0.80;;;;;;;28.08;34.21;101970.02;106997;1282;61989;-84
2022/08/10 10:22:03;;;;;;;3.00;1.40;;;;;;;28.20;34.10;101972.52;106837;1284;61594;-84
2022/08/10 10:25:11;;;;;;;2.10;1.10;;;;;;;28.28;34.58;101966.88;107178;1281;73931;-84
2022/08/10 10:28:12;;;;;;;2.60;1.20;;;;;;;28.42;34.14;101964.35;107177;1282;72395;-84
2022/08/10 10:31:04;;;;;;;2.50;1.00;;;;;;;28.50;32.92;101960.88;107091;1282;73007;-85
2022/08/10 10:33:59;;;;;;;2.80;1.20;;;;;;;28.57;33.66;101957.25;107090;1282;60344;-85
2022/08/10 10:36:28;;;;;;;2.90;1.10;;;;;;;28.69;33.32;101949.11;106715;1284;60319;-85
2022/08/10 10:38:58;;;;;;;1.80;0.90;;;;;;;28.81;32.71;101944.18;107064;1282;74061;-83
2022/08/10 10:41:40;;;;;;;3.30;1.00;;;;;;;28.79;32.78;101947.95;106861;1282;71915;-84
2022/08/10 10:44:42;;;;;;;2.00;0.80;;;;;;;28.91;32.65;101952.75;107220;1282;75414;-84
2022/08/10 10:47:15;;;;;;;2.70;1.10;;;;;;;28.99;32.56;101954.45;107051;1282;61199;-84
2022/08/10 10:50:16;;;;;;;3.10;0.90;;;;;;;29.01;30.68;101950.05;107147;1282;61385;-84
2022/08/10 10:53:05;;;;;;;2.70;1.00;;;;;;;29.09;31.31;101944.29;106906;1282;75983;-85
2022/08/10 10:55:48;;;;;;;2.40;0.90;;;;;;;29.20;32.00;101937.95;106968;1282;72495;-85
2022/08/10 10:58:56;;;;;;;2.10;1.00;;;;;;;29.26;31.92;101928.77;106778;1282;73350;-84
2022/08/10 11:01:51;;;;;;;2.20;0.90;;;;;;;29.37;31.73;101927.36;107356;1281;60606;-84
2022/08/10 11:04:23;;;;;;;3.80;1.10;;;;;;;29.45;31.40;101929.88;104129;1282;4215060;-84
2022/08/10 11:07:10;;;;;;;3.40;1.00;;;;;;;29.59;31.94;101928.41;107061;1282;74374;-84
2022/08/10 11:10:01;;;;;;;2.00;1.00;;;;;;;29.72;31.38;101926.73;107062;1280;72996;-84
2022/08/10 11:12:48;;;;;;;3.00;1.00;;;;;;;29.77;30.59;101928.81;107250;1282;74250;-85
2022/08/10 11:15:35;;;;;;;2.10;1.00;;;;;;;29.81;30.97;101931.16;107412;1282;61073;-85
2022/08/10 11:18:38;;;;;;;4.10;1.00;;;;;;;29.91;30.50;101929.52;107100;1282;60498;-85
2022/08/10 11:21:26;;;;;;;1.80;1.10;;;;;;;29.93;30.21;101931.80;107359;1281;76035;-84
2022/08/10 11:24:09;;;;;;;2.10;0.80;;;;;;;29.87;29.44;101927.71;107316;1282;71453;-85
2022/08/10 11:27:13;;;;;;;2.40;1.00;;;;;;;29.78;30.28;101924.66;107440;1282;75845;-84
2022/08/10 11:29:59;;;;;;;2.20;0.90;;;;;;;29.83;30.43;101926.73;107297;1282;61147;-84
2022/08/10 11:32:35;;;;;;;3.40;1.00;;;;;;;29.92;30.48;101924.86;107147;1282;60828;-84
2022/08/10 11:35:09;;;;;;;2.20;0.90;;;;;;;29.98;29.57;101925.45;106899;1282;76037;-85
2022/08/10 11:38:02;;;;;;;3.10;1.00;;;;;;;30.08;30.20;101923.95;107047;1282;70451;-84
2022/08/10 11:40:54;;;;;;;2.70;1.00;;;;;;;30.23;30.23;101923.48;107459;1282;75374;-85
2022/08/10 11:43:26;;;;;;;1.70;0.80;;;;;;;30.27;28.95;101924.08;107083;1282;61121;-84
2022/08/10 11:46:10;;;;;;;2.60;1.10;;;;;;;30.26;29.31;101917.95;106765;1283;61639;-84
2022/08/10 11:48:55;;;;;;;2.70;0.90;;;;;;;30.35;29.55;101917.84;107056;1282;73874;-85
2022/08/10 11:51:47;;;;;;;4.70;1.10;;;;;;;30.47;29.22;101917.35;107098;1282;71568;-84
2022/08/10 11:54:25;;;;;;;3.40;1.10;;;;;;;30.48;28.92;101912.59;107186;1284;74067;-84
2022/08/10 11:56:53;;;;;;;3.10;1.10;;;;;;;30.55;29.06;101908.52;106990;1281;61285;-84
2022/08/10 12:02:20;;;;;;;2.40;1.00;;;;;;;30.86;29.52;101908.14;107225;1282;75052;-84
2022/08/10 12:04:51;;;;;;;3.80;1.00;;;;;;;31.07;28.70;101906.95;107024;1282;72486;-84
2022/08/10 12:07:20;;;;;;;4.10;1.00;;;;;;;31.33;28.00;101903.74;107207;1282;74225;-84
2022/08/10 12:10:08;;;;;;;6.00;1.40;;;;;;;31.79;27.68;101896.77;107281;1282;62911;-84
2022/08/10 12:13:10;;;;;;;2.30;0.80;;;;;;;32.24;27.09;101901.77;107308;1284;61408;-84
2022/08/10 12:15:47;;;;;;;2.30;0.90;;;;;;;32.68;25.76;101893.00;107296;1282;75820;-84
2022/08/10 12:18:27;;;;;;;3.20;1.10;;;;;;;33.08;25.79;101895.67;106871;1282;71209;-83
2022/08/10 12:21:09;;;;;;;2.80;0.90;;;;;;;33.59;25.45;101887.54;107118;1282;74054;-84